Blyn, Washington
Current Conditions -  °F | °C
As of 5:53 AM on Wednesday 28 Jan 2015 (Local Time) from KCLM Reporting Station
Clear Clear  
Wind Chill: 32°   Ceiling: Unl
Heat Index: 36°   Visibility: 10mi
Dew Point: 34°   Wind: 5mph
Humidity: 93%   Direction: 210°SSW
Pressure: 30.34"   Gusts: NA
Location:  48.0015°N, 123.09°W
Report Text: KCLM 281353Z AUTO 21004KT 10SM CLR 02/01 A3034 RMK AO2 SLP277 T00220011 $
Loading
Personal Weather Stations






























Interactive Weather Map New forecast layout! Learn more

10-Day Weather Forecast

Advertisements
Track Severe Weather on mobile